createdAt,value
2023-10-06T00:03:25.264Z,14.81
2023-10-06T00:08:41.795Z,14.72
2023-10-06T00:14:01.946Z,14.62
2023-10-06T00:19:15.561Z,14.66
2023-10-06T00:24:17.053Z,14.65
2023-10-06T00:29:22.614Z,14.67
2023-10-06T00:34:26.854Z,14.64
2023-10-06T00:39:31.465Z,14.64
2023-10-06T00:44:32.992Z,14.64
2023-10-06T00:49:34.521Z,14.63
2023-10-06T00:54:36.207Z,14.61
2023-10-06T00:59:37.739Z,14.63
2023-10-06T01:04:46.995Z,14.57
2023-10-06T01:09:57.357Z,14.59
2023-10-06T01:15:17.393Z,14.57
2023-10-06T01:20:34.228Z,14.55
2023-10-06T01:25:36.411Z,14.54
2023-10-06T01:30:38.066Z,14.56
2023-10-06T01:35:43.923Z,14.52
2023-10-06T01:40:46.861Z,14.49
2023-10-06T01:45:48.425Z,14.45
2023-10-06T01:50:50.691Z,14.38
2023-10-06T01:55:53.424Z,14.32
2023-10-06T02:00:55.111Z,14.32
2023-10-06T02:05:56.631Z,14.30
2023-10-06T02:10:58.175Z,14.26
2023-10-06T02:16:00.211Z,14.22
2023-10-06T02:21:05.331Z,14.23
2023-10-06T02:26:15.429Z,14.23
2023-10-06T02:31:22.579Z,14.23
2023-10-06T02:36:24.619Z,14.22
2023-10-06T02:41:28.895Z,14.24
2023-10-06T02:46:30.906Z,14.25
2023-10-06T02:51:41.445Z,14.27
2023-10-06T02:56:45.229Z,14.26
2023-10-06T03:01:52.643Z,14.27
2023-10-06T03:06:58.861Z,14.28
2023-10-06T03:12:01.127Z,14.20
2023-10-06T03:17:02.771Z,14.23
2023-10-06T03:22:07.765Z,14.24
2023-10-06T03:27:14.619Z,14.25
2023-10-06T03:32:24.103Z,14.20
2023-10-06T03:37:51.884Z,14.28
2023-10-06T03:42:57.732Z,14.31
2023-10-06T03:48:09.671Z,14.29
2023-10-06T03:53:13.716Z,14.34
2023-10-06T03:58:17.377Z,14.33
2023-10-06T04:03:20.165Z,14.34
2023-10-06T04:08:22.766Z,14.36
2023-10-06T04:13:25.325Z,14.35
2023-10-06T04:18:26.877Z,14.37
2023-10-06T04:23:28.433Z,14.36
2023-10-06T04:28:30.016Z,14.35
2023-10-06T04:33:31.571Z,14.32
2023-10-06T04:38:33.076Z,14.29
2023-10-06T04:43:35.437Z,14.27
2023-10-06T04:48:37.293Z,14.26
2023-10-06T04:53:39.437Z,14.27
2023-10-06T04:58:41.492Z,14.26
2023-10-06T05:03:47.084Z,14.24
2023-10-06T05:08:50.396Z,14.26
2023-10-06T05:13:55.322Z,14.30
2023-10-06T05:18:57.024Z,14.32
2023-10-06T05:23:58.675Z,14.35
2023-10-06T05:29:00.309Z,14.38
2023-10-06T05:34:01.834Z,14.41
2023-10-06T05:39:04.268Z,14.40
2023-10-06T05:44:08.436Z,14.42
2023-10-06T05:49:12.381Z,14.43
2023-10-06T05:54:20.128Z,14.38
2023-10-06T05:59:22.828Z,14.33
2023-10-06T06:04:28.653Z,14.35
2023-10-06T06:09:31.590Z,14.35
2023-10-06T06:14:33.445Z,14.35
2023-10-06T06:19:35.010Z,14.35
2023-10-06T06:24:39.182Z,14.38
2023-10-06T06:29:40.773Z,14.43
2023-10-06T06:34:43.143Z,14.45
2023-10-06T06:39:45.719Z,14.50
2023-10-06T06:44:49.397Z,14.56
2023-10-06T06:49:51.174Z,14.62
2023-10-06T06:54:52.606Z,14.60
2023-10-06T06:59:54.167Z,14.62
2023-10-06T07:04:56.425Z,14.65
2023-10-06T07:09:57.919Z,14.71
2023-10-06T07:14:59.451Z,14.81
2023-10-06T07:20:02.024Z,14.83
2023-10-06T07:25:05.491Z,14.86
2023-10-06T07:30:11.155Z,14.89
2023-10-06T07:35:15.128Z,14.94
2023-10-06T07:40:22.523Z,14.98
2023-10-06T07:45:27.846Z,15.09
2023-10-06T07:50:34.369Z,15.14
2023-10-06T07:55:35.901Z,15.17
2023-10-06T08:00:40.282Z,15.22
2023-10-06T08:05:42.314Z,15.26
2023-10-06T08:10:43.852Z,15.33
2023-10-06T08:15:46.325Z,15.39
2023-10-06T08:20:48.049Z,15.47
2023-10-06T08:31:00.106Z,15.73
2023-10-06T08:36:03.021Z,15.78
2023-10-06T08:41:05.836Z,15.90
2023-10-06T08:46:08.297Z,16.06
2023-10-06T08:51:15.267Z,16.22
2023-10-06T08:56:17.020Z,16.29
2023-10-06T09:01:19.669Z,16.45
2023-10-06T09:06:21.166Z,16.52
2023-10-06T09:11:41.992Z,16.70
2023-10-06T09:16:51.061Z,16.84
2023-10-06T09:22:03.571Z,16.96
2023-10-06T09:27:21.244Z,17.04
2023-10-06T09:32:24.922Z,17.02
2023-10-06T09:37:26.418Z,17.01
2023-10-06T09:42:32.299Z,17.10
2023-10-06T09:47:44.099Z,17.18
2023-10-06T09:52:48.424Z,17.24
2023-10-06T09:57:51.181Z,17.30
2023-10-06T10:02:54.253Z,17.46
2023-10-06T10:07:56.255Z,17.60
2023-10-06T10:13:09.112Z,17.76
2023-10-06T10:18:30.667Z,17.80
2023-10-06T10:23:32.507Z,17.90
2023-10-06T10:28:34.496Z,18.13
2023-10-06T10:33:39.016Z,18.30
2023-10-06T10:38:45.378Z,18.48
2023-10-06T10:43:50.029Z,18.47
2023-10-06T10:48:53.856Z,18.44
2023-10-06T10:53:55.373Z,18.47
2023-10-06T10:58:57.773Z,18.49
2023-10-06T11:04:13.962Z,18.53
2023-10-06T11:09:38.116Z,18.70
2023-10-06T11:14:42.129Z,19.07
2023-10-06T11:19:43.660Z,19.13
2023-10-06T11:24:46.251Z,19.05
2023-10-06T11:29:47.765Z,19.13
2023-10-06T11:34:50.524Z,19.23
2023-10-06T11:39:58.307Z,19.36
2023-10-06T11:45:01.291Z,19.44
2023-10-06T11:50:04.881Z,19.46
2023-10-06T11:55:10.308Z,19.36
2023-10-06T12:00:13.539Z,19.47
2023-10-06T12:05:15.584Z,19.55
2023-10-06T12:10:22.106Z,19.73
2023-10-06T12:15:23.596Z,19.63
2023-10-06T12:20:25.864Z,19.46
2023-10-06T12:25:28.201Z,19.32
2023-10-06T12:30:29.809Z,19.30
2023-10-06T12:35:31.713Z,19.46
2023-10-06T12:40:33.250Z,19.69
2023-10-06T12:45:34.750Z,19.61
2023-10-06T12:50:42.000Z,19.62
2023-10-06T12:55:44.344Z,19.68
2023-10-06T13:00:46.012Z,19.63
2023-10-06T13:05:48.176Z,19.49
2023-10-06T13:10:49.909Z,19.36
2023-10-06T13:15:51.601Z,19.35
2023-10-06T13:20:53.585Z,19.22
2023-10-06T13:25:56.965Z,19.18
2023-10-06T13:30:58.513Z,19.07
2023-10-06T13:36:01.623Z,18.97
2023-10-06T13:41:06.148Z,18.93
2023-10-06T13:46:07.724Z,18.90
2023-10-06T13:51:10.421Z,18.96
2023-10-06T13:56:12.171Z,18.94
2023-10-06T14:01:13.903Z,18.84
2023-10-06T14:06:15.723Z,18.69
2023-10-06T14:11:17.893Z,18.65
2023-10-06T14:16:28.694Z,18.72
2023-10-06T14:21:31.518Z,18.65
2023-10-06T14:26:33.291Z,18.69
2023-10-06T14:31:48.859Z,18.63
2023-10-06T14:36:58.553Z,18.63
2023-10-06T14:42:18.394Z,18.58
2023-10-06T14:47:19.926Z,18.53
2023-10-06T14:52:24.268Z,18.51
2023-10-06T14:57:27.804Z,18.43
2023-10-06T15:02:29.419Z,18.54
2023-10-06T15:07:30.934Z,18.55
2023-10-06T15:12:32.628Z,18.58
2023-10-06T15:17:36.061Z,18.50
2023-10-06T15:22:37.885Z,18.47
2023-10-06T15:27:39.415Z,18.36
2023-10-06T15:32:41.064Z,18.35
2023-10-06T15:37:42.577Z,18.32
2023-10-06T15:43:13.134Z,18.29
2023-10-06T15:48:24.472Z,18.19
2023-10-06T15:53:31.872Z,18.17
2023-10-06T15:58:34.023Z,18.12
2023-10-06T16:03:36.398Z,18.04
2023-10-06T16:08:39.408Z,18.00
2023-10-06T16:13:46.189Z,17.96
2023-10-06T16:18:52.636Z,17.93
2023-10-06T16:23:54.126Z,17.86
2023-10-06T16:28:55.861Z,17.82
2023-10-06T16:33:58.211Z,17.82
2023-10-06T16:39:00.407Z,17.73
2023-10-06T16:44:03.194Z,17.64
2023-10-06T16:49:07.637Z,17.62
2023-10-06T16:54:11.514Z,17.54
2023-10-06T16:59:14.297Z,17.48
2023-10-06T17:04:19.325Z,17.45
2023-10-06T17:09:26.100Z,17.39
2023-10-06T17:14:27.707Z,17.39
2023-10-06T17:19:29.825Z,17.36
2023-10-06T17:24:32.184Z,17.32
2023-10-06T17:29:34.278Z,17.29
2023-10-06T17:34:35.833Z,17.23
2023-10-06T17:39:37.576Z,17.23
2023-10-06T17:44:42.735Z,17.17
2023-10-06T17:49:45.697Z,17.18
2023-10-06T17:54:47.597Z,17.20
2023-10-06T17:59:50.529Z,17.17
2023-10-06T18:04:52.390Z,17.14
2023-10-06T18:09:54.668Z,17.08
2023-10-06T18:14:56.260Z,17.04
2023-10-06T18:19:57.836Z,17.00
2023-10-06T18:24:59.273Z,16.92
2023-10-06T18:30:00.876Z,16.88
2023-10-06T18:35:05.226Z,16.80
2023-10-06T18:40:07.358Z,16.83
2023-10-06T18:45:10.986Z,16.83
2023-10-06T18:50:22.657Z,16.82
2023-10-06T18:55:24.656Z,16.78
2023-10-06T19:00:27.413Z,16.77
2023-10-06T19:05:28.937Z,16.72
2023-10-06T19:10:30.476Z,16.68
2023-10-06T19:15:32.863Z,16.66
2023-10-06T19:20:34.414Z,16.66
2023-10-06T19:25:45.304Z,16.66
2023-10-06T19:30:55.731Z,16.65
2023-10-06T19:36:09.089Z,16.68
2023-10-06T19:41:15.829Z,16.64
2023-10-06T19:46:17.602Z,16.65
2023-10-06T19:51:19.309Z,16.64
2023-10-06T19:56:25.215Z,16.65
2023-10-06T20:01:26.914Z,16.61
2023-10-06T20:06:28.510Z,16.60
2023-10-06T20:11:29.972Z,16.60
2023-10-06T20:16:31.483Z,16.64
2023-10-06T20:21:33.312Z,16.61
2023-10-06T20:26:34.893Z,16.59
2023-10-06T20:31:39.319Z,16.58
2023-10-06T20:36:41.080Z,16.59
2023-10-06T20:41:43.461Z,16.60
2023-10-06T20:46:45.152Z,16.58
2023-10-06T20:51:49.758Z,16.54
2023-10-06T20:56:52.796Z,16.54
2023-10-06T21:01:54.293Z,16.51
2023-10-06T21:06:55.929Z,16.52
2023-10-06T21:11:57.519Z,16.50
2023-10-06T21:16:59.031Z,16.48
2023-10-06T21:22:00.630Z,16.46
2023-10-06T21:27:02.292Z,16.49
2023-10-06T21:32:04.135Z,16.48
2023-10-06T21:37:05.646Z,16.49
2023-10-06T21:42:07.124Z,16.46
2023-10-06T21:47:08.713Z,16.44
2023-10-06T21:52:13.603Z,16.48
2023-10-06T21:57:15.119Z,16.48
2023-10-06T22:02:16.720Z,16.51
2023-10-06T22:07:18.292Z,16.54
2023-10-06T22:12:19.896Z,16.55
2023-10-06T22:17:21.587Z,16.56
2023-10-06T22:22:23.168Z,16.59
2023-10-06T22:27:24.774Z,16.57
2023-10-06T22:32:27.313Z,16.59
2023-10-06T22:37:30.805Z,16.59
2023-10-06T22:42:32.379Z,16.60
2023-10-06T22:47:33.956Z,16.66
2023-10-06T22:52:36.512Z,16.66
2023-10-06T22:57:39.620Z,16.67
2023-10-06T23:02:43.777Z,16.74
2023-10-06T23:07:47.967Z,16.78
2023-10-06T23:12:52.558Z,16.77
2023-10-06T23:17:57.498Z,16.78
2023-10-06T23:22:59.770Z,16.70
2023-10-06T23:28:01.384Z,16.68
2023-10-06T23:33:02.947Z,16.68
2023-10-06T23:38:12.733Z,16.70
2023-10-06T23:43:16.939Z,16.74
2023-10-06T23:48:18.562Z,16.82
2023-10-06T23:53:24.039Z,16.87
2023-10-06T23:58:25.650Z,16.92
